Time;durP1;ratioP1;P1;durP2;ratioP2;P2;SDS_P1;SDS_P2;PMS_P1;PMS_P2;Temp;Humidity;BMP_temperature;BMP_pressure;BME280_temperature;BME280_humidity;BME280_pressure;Samples;Min_cycle;Max_cycle;Signal;HPM_P1;HPM_P2
2022/05/01 00:00:37;;;;;;;20.50;14.70;;;;;;;5.43;86.06;101732.17;106322;1260;71081;-72
2022/05/01 00:03:30;;;;;;;23.00;16.20;;;;;;;5.41;85.85;101737.45;106464;1259;68871;-72
2022/05/01 00:06:05;;;;;;;26.80;17.40;;;;;;;5.40;86.30;101734.89;106445;1259;72616;-73
2022/05/01 00:08:36;;;;;;;23.60;16.00;;;;;;;5.38;86.34;101737.04;106418;1259;63488;-72
2022/05/01 00:11:08;;;;;;;25.30;15.90;;;;;;;5.32;85.95;101740.84;106442;1259;61066;-72
2022/05/01 00:13:45;;;;;;;22.40;15.00;;;;;;;5.27;86.06;101739.45;106342;1259;74465;-75
2022/05/01 00:16:14;;;;;;;20.90;13.70;;;;;;;5.27;85.28;101743.96;106554;1259;71035;-74
2022/05/01 00:18:44;;;;;;;23.60;14.80;;;;;;;5.22;85.26;101746.36;106812;1259;69117;-71
2022/05/01 00:21:13;;;;;;;21.60;15.30;;;;;;;5.19;85.64;101748.17;106479;1259;71551;-75
2022/05/01 00:23:42;;;;;;;19.80;14.40;;;;;;;5.17;85.25;101749.83;106593;1258;59753;-70
2022/05/01 00:26:12;;;;;;;19.10;14.30;;;;;;;5.12;85.07;101748.79;106577;1259;58988;-72
2022/05/01 00:28:41;;;;;;;22.20;15.00;;;;;;;5.08;84.92;101749.27;106457;1259;72504;-72
2022/05/01 00:31:10;;;;;;;19.90;15.30;;;;;;;5.01;85.02;101748.79;106377;1259;72210;-72
2022/05/01 00:36:26;;;;;;;24.30;15.00;;;;;;;4.92;85.36;101752.89;106297;1261;72128;-73
2022/05/01 00:39:02;;;;;;;26.30;16.80;;;;;;;4.91;86.39;101753.44;106274;1259;63029;-72
2022/05/01 00:41:36;;;;;;;23.20;16.20;;;;;;;4.89;86.23;101751.93;106342;1259;61739;-72
2022/05/01 00:44:10;;;;;;;23.40;16.00;;;;;;;4.88;86.20;101752.33;106366;1261;73235;-76
2022/05/01 00:46:50;;;;;;;26.10;17.00;;;;;;;4.84;86.05;101748.31;106468;1260;69706;-72
2022/05/01 00:49:26;;;;;;;24.80;15.60;;;;;;;4.78;85.38;101746.96;106251;1259;71675;-72
2022/05/01 00:52:09;;;;;;;25.20;16.50;;;;;;;4.68;85.15;101744.48;106460;1260;74566;-71
2022/05/01 00:54:43;;;;;;;22.70;15.40;;;;;;;4.57;85.30;101743.98;106245;1260;62891;-74
2022/05/01 00:57:14;;;;;;;23.00;16.50;;;;;;;4.47;85.16;101742.04;106334;1259;59643;-74
2022/05/01 00:59:45;;;;;;;24.70;17.30;;;;;;;4.41;86.66;101743.94;106179;1262;72534;-73
2022/05/01 01:02:16;;;;;;;23.80;17.10;;;;;;;4.39;87.14;101744.69;106204;1261;70765;-74
2022/05/01 01:04:45;;;;;;;28.50;17.00;;;;;;;4.39;87.22;101741.93;106308;1260;68043;-74
2022/05/01 01:07:14;;;;;;;26.20;17.20;;;;;;;4.37;86.88;101741.65;106328;1259;73989;-71
2022/05/01 01:09:43;;;;;;;22.30;15.70;;;;;;;4.33;86.99;101744.19;106204;1261;62953;-73
2022/05/01 01:15:12;;;;;;;23.30;16.70;;;;;;;4.37;86.16;101748.04;106382;1259;73431;-71
2022/05/01 01:17:43;;;;;;;23.20;16.80;;;;;;;4.36;86.83;101749.80;106323;1259;72902;-70
2022/05/01 01:20:15;;;;;;;22.60;16.70;;;;;;;4.38;87.05;101752.33;106344;1261;70166;-69
2022/05/01 01:22:48;;;;;;;26.50;17.20;;;;;;;4.43;86.34;101752.33;105757;1259;566692;-70
2022/05/01 01:25:33;;;;;;;;;;;;;;;4.47;85.89;101748.41;106295;1259;62593;-69
2022/05/01 01:28:05;;;;;;;23.80;16.00;;;;;;;4.44;85.26;101747.98;106312;1261;61655;-69
2022/05/01 01:33:28;;;;;;;27.20;16.30;;;;;;;4.40;86.07;101747.94;106253;1259;70284;-71
2022/05/01 01:36:05;;;;;;;26.40;17.30;;;;;;;4.43;86.34;101743.72;106248;1261;70671;-72
2022/05/01 01:38:34;;;;;;;29.30;18.00;;;;;;;4.46;86.41;101741.73;106324;1259;72567;-74
2022/05/01 01:41:09;;;;;;;27.10;18.60;;;;;;;4.48;86.56;101738.90;106298;1259;61368;-73
2022/05/01 01:43:42;;;;;;;26.40;17.40;;;;;;;4.50;86.52;101740.05;106343;1259;61569;-72
2022/05/01 01:46:10;;;;;;;26.30;18.10;;;;;;;4.51;86.35;101736.39;106354;1260;74994;-72
2022/05/01 01:48:39;;;;;;;31.70;20.20;;;;;;;4.52;86.24;101736.37;106471;1260;72506;-72
2022/05/01 01:51:08;;;;;;;29.40;18.80;;;;;;;4.52;86.27;101735.67;106497;1259;68758;-73
2022/05/01 01:53:37;;;;;;;25.90;18.70;;;;;;;4.49;86.60;101735.92;106465;1259;71777;-75
2022/05/01 01:56:08;;;;;;;28.90;18.40;;;;;;;4.47;86.76;101735.12;106399;1259;60993;-69
2022/05/01 01:58:40;;;;;;;28.20;19.20;;;;;;;4.46;86.78;101737.94;106444;1259;60128;-74
2022/05/01 02:01:10;;;;;;;26.50;18.30;;;;;;;4.44;86.88;101738.86;106363;1259;74967;-72
2022/05/01 02:03:39;;;;;;;25.50;18.00;;;;;;;4.42;85.88;101738.55;106431;1260;69393;-73
2022/05/01 02:06:09;;;;;;;25.70;18.30;;;;;;;4.40;85.97;101738.98;106474;1260;69707;-72
2022/05/01 02:08:37;;;;;;;27.00;17.70;;;;;;;4.35;85.98;101741.20;106382;1259;74504;-71
2022/05/01 02:11:06;;;;;;;26.60;18.40;;;;;;;4.34;85.90;101735.90;106398;1259;59831;-71
2022/05/01 02:13:37;;;;;;;26.50;18.30;;;;;;;4.26;85.42;101730.77;106428;1261;59751;-72
2022/05/01 02:16:06;;;;;;;27.10;18.20;;;;;;;4.33;85.54;101738.31;106428;1261;72807;-74
2022/05/01 02:18:35;;;;;;;26.70;17.50;;;;;;;4.36;85.53;101743.24;106443;1260;70450;-73
2022/05/01 02:23:51;;;;;;;24.50;17.20;;;;;;;4.29;85.50;101740.16;106362;1258;71753;-75
2022/05/01 02:26:20;;;;;;;25.20;18.30;;;;;;;4.24;85.59;101738.93;106401;1259;59700;-75
2022/05/01 02:28:48;;;;;;;25.80;18.70;;;;;;;4.20;86.41;101736.81;106444;1259;61501;-75
2022/05/01 02:31:17;;;;;;;27.80;19.80;;;;;;;4.19;86.31;101739.61;106424;1260;72297;-74
2022/05/01 02:33:46;;;;;;;28.20;19.50;;;;;;;4.16;87.62;101739.52;106434;1259;69606;-73
2022/05/01 02:36:16;;;;;;;29.40;20.80;;;;;;;4.11;86.22;101746.04;106340;1260;70949;-73
2022/05/01 02:38:46;;;;;;;26.50;18.10;;;;;;;4.05;85.69;101745.36;106458;1259;71680;-74
2022/05/01 02:41:16;;;;;;;27.00;19.20;;;;;;;3.98;85.26;101748.85;106469;1260;59752;-71
2022/05/01 02:43:45;;;;;;;29.30;19.70;;;;;;;3.89;86.26;101746.33;106403;1259;59359;-73
2022/05/01 02:46:15;;;;;;;27.90;19.90;;;;;;;3.85;87.26;101744.03;106359;1261;72771;-74
2022/05/01 02:48:44;;;;;;;30.70;19.10;;;;;;;3.84;87.54;101744.05;106372;1259;70733;-74
2022/05/01 02:51:13;;;;;;;28.40;20.10;;;;;;;3.81;87.11;101740.17;106343;1259;70626;-69
2022/05/01 02:53:41;;;;;;;30.50;20.30;;;;;;;3.80;87.93;101738.66;106423;1261;74435;-69
2022/05/01 02:56:10;;;;;;;27.00;18.40;;;;;;;3.82;88.09;101740.67;106390;1259;60583;-70
2022/05/01 02:58:39;;;;;;;31.20;19.70;;;;;;;3.82;87.72;101737.92;106467;1261;59022;-69
2022/05/01 03:01:08;;;;;;;29.00;18.70;;;;;;;3.80;87.49;101733.83;106446;1259;73048;-69
2022/05/01 03:03:37;;;;;;;28.50;18.80;;;;;;;3.80;86.96;101729.53;106607;1260;72152;-71
2022/05/01 03:06:06;;;;;;;30.80;19.60;;;;;;;3.80;87.03;101741.05;106526;1258;71472;-73
2022/05/01 03:08:37;;;;;;;26.20;18.30;;;;;;;3.79;87.21;101743.16;106669;1260;73039;-72
2022/05/01 03:11:06;;;;;;;29.40;19.00;;;;;;;3.82;87.23;101745.31;106847;1260;62725;-74
2022/05/01 03:13:35;;;;;;;30.30;20.00;;;;;;;3.83;86.71;101747.35;106760;1260;60887;-73
2022/05/01 03:16:04;;;;;;;30.80;20.10;;;;;;;3.83;86.68;101750.80;106681;1260;74200;-72
2022/05/01 03:24:07;;;;;;;34.30;21.10;;;;;;;3.82;86.29;101763.25;106662;1260;72030;-75
2022/05/01 03:26:36;;;;;;;28.70;20.20;;;;;;;3.86;86.84;101766.23;106495;1260;59818;-74
2022/05/01 03:29:05;;;;;;;27.70;19.40;;;;;;;3.89;86.60;101772.00;106373;1260;61010;-73
2022/05/01 03:31:35;;;;;;;28.20;20.70;;;;;;;3.94;86.42;101772.20;106213;1260;75104;-71
2022/05/01 03:34:04;;;;;;;27.30;19.20;;;;;;;4.02;86.27;101771.98;106531;1260;70900;-73
2022/05/01 03:36:34;;;;;;;28.80;19.50;;;;;;;4.13;86.17;101773.58;106441;1259;68749;-72
2022/05/01 03:39:06;;;;;;;29.90;19.80;;;;;;;4.20;85.86;101774.58;106567;1260;74062;-74
2022/05/01 03:41:35;;;;;;;32.50;19.80;;;;;;;4.26;85.67;101780.79;106271;1260;59490;-74
2022/05/01 03:44:05;;;;;;;28.40;20.10;;;;;;;4.30;85.65;101783.09;106341;1258;61450;-75
2022/05/01 03:46:36;;;;;;;27.90;20.80;;;;;;;4.34;85.59;101786.77;106516;1260;72990;-74
2022/05/01 03:49:06;;;;;;;31.80;21.40;;;;;;;4.35;85.36;101786.89;106458;1260;69396;-73
2022/05/01 03:51:35;;;;;;;28.30;19.60;;;;;;;4.37;85.18;101780.11;106285;1260;67965;-74
2022/05/01 03:54:05;;;;;;;26.70;20.20;;;;;;;4.42;86.22;101785.48;106276;1260;71446;-74
2022/05/01 03:56:34;;;;;;;28.40;20.20;;;;;;;4.50;86.75;101784.05;106277;1260;62700;-75
2022/05/01 03:59:04;;;;;;;28.70;20.60;;;;;;;4.58;86.86;101785.02;106555;1259;59822;-74
2022/05/01 04:01:33;;;;;;;28.20;20.00;;;;;;;4.65;86.71;101784.80;106471;1259;73996;-74
2022/05/01 04:04:02;;;;;;;32.20;19.70;;;;;;;4.74;86.70;101787.79;106415;1260;71876;-75
2022/05/01 04:06:31;;;;;;;30.30;21.10;;;;;;;4.88;86.31;101787.88;106257;1261;68783;-73
2022/05/01 04:09:01;;;;;;;29.20;19.90;;;;;;;5.00;86.03;101789.23;106385;1260;71026;-72
2022/05/01 04:11:30;;;;;;;32.30;22.50;;;;;;;5.08;85.53;101789.48;106638;1260;62989;-72
2022/05/01 04:13:59;;;;;;;29.80;21.00;;;;;;;5.14;85.73;101791.87;106402;1260;61347;-74
2022/05/01 04:16:28;;;;;;;35.20;22.60;;;;;;;5.22;85.53;101792.84;106511;1260;72209;-76
2022/05/01 04:18:57;;;;;;;33.50;21.70;;;;;;;5.33;85.31;101794.54;106419;1260;70774;-72
2022/05/01 04:21:26;;;;;;;27.80;17.90;;;;;;;5.42;84.94;101789.91;106332;1260;68797;-75
2022/05/01 04:23:55;;;;;;;26.00;17.90;;;;;;;5.47;84.35;101787.85;106399;1260;72061;-73
2022/05/01 04:26:24;;;;;;;30.90;18.80;;;;;;;5.51;84.56;101784.77;106205;1260;62230;-72
2022/05/01 04:31:40;;;;;;;24.70;17.60;;;;;;;5.66;84.16;101787.37;106173;1261;76321;-74
2022/05/01 04:34:09;;;;;;;28.40;16.80;;;;;;;5.77;83.78;101783.35;106243;1260;72628;-72
2022/05/01 04:36:40;;;;;;;21.40;14.60;;;;;;;5.83;83.20;101784.67;106300;1258;70949;-72
2022/05/01 04:39:09;;;;;;;22.50;15.30;;;;;;;5.80;83.10;101779.44;106491;1259;72667;-70
2022/05/01 04:41:38;;;;;;;19.90;15.70;;;;;;;5.71;83.15;101778.20;106281;1259;63086;-72
2022/05/01 04:44:07;;;;;;;22.00;15.40;;;;;;;5.58;83.31;101780.41;106222;1261;59912;-76
2022/05/01 04:46:36;;;;;;;21.50;14.50;;;;;;;5.48;83.50;101778.48;106344;1259;73608;-75
2022/05/01 04:49:05;;;;;;;21.60;14.10;;;;;;;5.41;84.09;101777.66;106210;1261;69322;-73
2022/05/01 04:51:34;;;;;;;19.80;14.40;;;;;;;5.35;84.35;101778.60;106638;1260;70423;-74
2022/05/01 04:54:03;;;;;;;25.80;17.70;;;;;;;5.32;84.69;101773.33;106624;1259;72537;-76
2022/05/01 04:59:19;;;;;;;27.50;18.50;;;;;;;5.49;84.85;101776.70;106705;1260;60749;-74
2022/05/01 05:01:48;;;;;;;28.50;19.90;;;;;;;5.66;84.44;101775.96;106475;1261;73487;-74
2022/05/01 05:04:17;;;;;;;33.70;20.20;;;;;;;5.80;84.35;101780.11;106491;1260;70304;-72
2022/05/01 05:06:46;;;;;;;31.60;21.40;;;;;;;5.99;84.45;101785.52;106376;1260;68018;-76
2022/05/01 05:12:03;;;;;;;33.50;19.30;;;;;;;6.37;83.51;101785.18;106353;1260;63764;-75
2022/05/01 05:14:33;;;;;;;28.50;20.30;;;;;;;6.57;83.04;101785.25;106482;1261;61399;-76
2022/05/01 05:17:06;;;;;;;28.00;20.00;;;;;;;6.76;82.88;101781.24;106579;1260;72558;-75
2022/05/01 05:19:36;;;;;;;28.40;19.40;;;;;;;6.97;82.29;101780.42;106571;1260;71611;-73
2022/05/01 05:22:04;;;;;;;28.50;18.50;;;;;;;7.16;82.18;101779.61;106548;1260;70396;-75
2022/05/01 05:24:33;;;;;;;29.30;20.50;;;;;;;7.36;82.26;101783.30;106322;1260;72117;-74
2022/05/01 05:27:02;;;;;;;28.10;19.60;;;;;;;7.57;81.51;101787.65;106270;1259;62763;-75
2022/05/01 05:29:31;;;;;;;27.10;19.50;;;;;;;7.75;81.22;101789.78;106188;1260;60721;-72
2022/05/01 05:32:00;;;;;;;24.70;18.40;;;;;;;7.91;80.98;101791.86;106259;1260;74975;-71
2022/05/01 05:34:29;;;;;;;28.60;18.80;;;;;;;8.07;80.74;101793.06;106342;1259;71428;-76
2022/05/01 05:36:57;;;;;;;27.80;19.10;;;;;;;8.23;80.33;101791.13;106240;1260;71027;-72
2022/05/01 05:39:26;;;;;;;27.20;19.40;;;;;;;8.41;80.08;101787.06;106257;1260;72789;-73
2022/05/01 05:41:55;;;;;;;27.70;19.60;;;;;;;8.56;79.48;101785.11;106314;1260;60625;-72
2022/05/01 05:44:24;;;;;;;29.20;19.40;;;;;;;8.70;79.02;101784.48;106395;1260;60650;-72
2022/05/01 05:46:53;;;;;;;26.20;19.50;;;;;;;8.87;78.29;101788.21;106305;1260;74150;-76
2022/05/01 05:49:21;;;;;;;29.10;19.70;;;;;;;9.00;78.06;101784.78;106582;1260;72636;-72
2022/05/01 05:51:50;;;;;;;29.60;19.70;;;;;;;9.15;77.89;101784.20;106438;1260;68654;-72
2022/05/01 05:54:21;;;;;;;32.00;20.70;;;;;;;9.30;77.66;101782.75;107185;1260;71488;-75
2022/05/01 05:57:50;;;;;;;25.90;19.00;;;;;;;9.47;77.29;101785.71;107876;1260;62019;-84
2022/05/01 06:00:39;;;;;;;27.20;19.60;;;;;;;9.75;76.55;101782.55;107800;1262;61888;-79
2022/05/01 06:03:26;;;;;;;25.70;17.00;;;;;;;9.92;75.97;101780.11;106573;1263;74800;-76
2022/05/01 06:05:55;;;;;;;24.20;17.40;;;;;;;10.08;75.73;101783.09;106608;1263;71903;-71
2022/05/01 06:08:24;;;;;;;20.90;15.80;;;;;;;10.22;75.40;101778.85;106321;1263;71070;-71
2022/05/01 06:10:53;;;;;;;20.70;14.80;;;;;;;10.36;74.50;101778.09;106178;1262;74024;-72
2022/05/01 06:13:22;;;;;;;20.70;15.20;;;;;;;10.50;74.06;101780.86;106099;1263;64714;-71
2022/05/01 06:15:50;;;;;;;20.40;14.80;;;;;;;10.62;73.70;101783.66;106162;1263;61103;-73
2022/05/01 06:18:19;;;;;;;23.90;16.50;;;;;;;10.73;73.73;101789.66;106072;1263;75465;-70
2022/05/01 06:20:49;;;;;;;22.40;14.70;;;;;;;10.86;73.54;101787.02;106052;1262;70508;-75
2022/05/01 06:23:18;;;;;;;21.80;16.00;;;;;;;11.03;72.83;101786.77;106171;1263;69766;-70
2022/05/01 06:25:47;;;;;;;21.10;15.70;;;;;;;11.17;72.29;101784.05;105987;1263;71243;-72
2022/05/01 06:28:17;;;;;;;24.10;15.30;;;;;;;11.29;72.20;101780.67;105815;1264;60341;-73
2022/05/01 06:30:51;;;;;;;21.50;15.40;;;;;;;11.44;72.19;101780.38;106001;1261;59134;-72
2022/05/01 06:33:23;;;;;;;18.50;13.50;;;;;;;11.61;71.66;101777.45;106440;1258;73695;-72
2022/05/01 06:35:54;;;;;;;19.40;13.70;;;;;;;11.81;70.06;101775.38;106344;1259;70418;-70
2022/05/01 06:38:23;;;;;;;17.30;13.70;;;;;;;12.02;68.39;101772.71;106214;1259;69500;-72
2022/05/01 06:40:52;;;;;;;12.70;8.50;;;;;;;12.20;67.53;101777.20;106239;1260;74339;-72
2022/05/01 06:43:20;;;;;;;14.40;9.30;;;;;;;12.38;66.30;101774.29;106435;1258;61873;-71
2022/05/01 06:45:49;;;;;;;11.80;7.70;;;;;;;12.60;64.06;101772.93;106172;1259;59818;-75
2022/05/01 06:48:20;;;;;;;11.90;9.40;;;;;;;12.78;63.40;101771.57;106963;1257;73750;-76
2022/05/01 06:50:48;;;;;;;11.10;8.10;;;;;;;12.99;61.62;101768.46;106466;1260;72736;-73
2022/05/01 06:53:17;;;;;;;15.50;8.40;;;;;;;13.17;59.32;101772.31;106681;1258;68703;-76
2022/05/01 06:55:46;;;;;;;10.50;7.30;;;;;;;13.34;58.23;101772.95;106544;1260;72033;-71
2022/05/01 06:58:19;;;;;;;10.30;6.90;;;;;;;13.51;56.52;101772.00;106309;1260;62588;-71
2022/05/01 07:00:49;;;;;;;8.40;5.50;;;;;;;13.65;55.47;101771.20;106278;1259;60591;-73
2022/05/01 07:03:21;;;;;;;7.20;4.50;;;;;;;13.75;54.70;101761.40;106558;1257;75148;-72
2022/05/01 07:05:50;;;;;;;9.30;6.50;;;;;;;13.99;54.11;101772.90;106205;1260;73092;-73
2022/05/01 07:08:20;;;;;;;8.80;6.50;;;;;;;14.10;51.81;101768.11;106487;1260;69068;-73
2022/05/01 07:10:48;;;;;;;13.40;8.40;;;;;;;14.28;52.13;101768.36;106618;1259;73995;-73
2022/05/01 07:13:22;;;;;;;10.00;7.10;;;;;;;14.41;51.51;101766.56;106701;1257;60311;-73
2022/05/01 07:15:51;;;;;;;10.80;7.10;;;;;;;14.63;52.82;101767.29;106631;1256;61364;-74
2022/05/01 07:18:20;;;;;;;13.20;8.30;;;;;;;14.76;51.95;101764.96;106690;1259;70612;-73
2022/05/01 07:20:49;;;;;;;9.20;7.20;;;;;;;14.86;51.93;101754.00;106586;1260;72235;-78
2022/05/01 07:23:22;;;;;;;12.70;7.50;;;;;;;15.04;50.22;101760.56;106432;1259;69341;-73
2022/05/01 07:25:51;;;;;;;;;;;;;;;15.16;47.86;101757.61;106302;1260;72035;-74
2022/05/01 07:28:20;;;;;;;12.00;6.50;;;;;;;15.15;47.70;101758.53;106259;1260;61426;-74
2022/05/01 07:30:48;;;;;;;9.60;6.70;;;;;;;15.08;47.52;101755.02;106330;1259;60878;-73
2022/05/01 07:33:17;;;;;;;10.60;6.00;;;;;;;15.06;47.26;101755.90;106710;1259;75061;-74
2022/05/01 07:35:48;;;;;;;6.70;4.90;;;;;;;15.21;47.35;101756.66;106659;1259;71836;-72
2022/05/01 07:38:17;;;;;;;8.20;5.60;;;;;;;15.34;47.15;101755.48;106504;1260;71225;-73
2022/05/01 07:40:52;;;;;;;8.40;4.90;;;;;;;15.44;44.76;101759.71;106143;1260;74212;-75
2022/05/01 07:43:21;;;;;;;7.70;4.60;;;;;;;15.58;45.40;101759.13;106434;1259;59910;-74
2022/05/01 07:45:50;;;;;;;8.40;4.30;;;;;;;15.62;43.34;101752.35;106335;1260;59686;-75
2022/05/01 07:48:20;;;;;;;8.30;4.70;;;;;;;15.69;43.85;101747.80;106420;1260;75113;-73
2022/05/01 07:50:48;;;;;;;7.10;4.80;;;;;;;15.77;44.59;101748.21;106364;1260;72797;-75
2022/05/01 07:53:18;;;;;;;8.50;4.80;;;;;;;15.76;44.40;101743.69;106410;1260;71415;-76
2022/05/01 07:55:46;;;;;;;10.20;5.20;;;;;;;15.92;45.21;101741.25;106435;1259;75098;-73
2022/05/01 07:58:15;;;;;;;7.10;4.70;;;;;;;16.07;44.19;101741.09;106384;1258;60779;-72
2022/05/01 08:00:45;;;;;;;6.50;4.10;;;;;;;16.17;44.15;101739.06;106478;1260;61757;-73
2022/05/01 08:06:02;;;;;;;6.20;3.40;;;;;;;16.31;41.60;101734.97;106516;1258;72338;-74
2022/05/01 08:08:33;;;;;;;4.80;3.20;;;;;;;16.40;40.90;101731.05;106487;1259;69630;-75
2022/05/01 08:11:04;;;;;;;6.10;3.30;;;;;;;16.49;39.98;101730.15;106608;1260;74167;-74
2022/05/01 08:13:34;;;;;;;6.80;3.20;;;;;;;16.55;40.65;101730.04;106674;1260;59555;-76
2022/05/01 08:16:03;;;;;;;4.50;3.00;;;;;;;16.62;39.62;101723.82;106347;1260;58968;-72
2022/05/01 08:21:21;;;;;;;7.30;3.80;;;;;;;16.65;38.17;101719.50;106608;1259;72299;-74
2022/05/01 08:23:54;;;;;;;9.60;3.70;;;;;;;16.67;38.27;101712.89;106705;1260;71118;-76
2022/05/01 08:26:26;;;;;;;4.70;3.20;;;;;;;16.93;38.43;101714.83;106662;1257;73594;-74
2022/05/01 08:28:56;;;;;;;8.50;3.40;;;;;;;17.02;37.43;101712.42;106801;1259;59559;-74
2022/05/01 08:31:26;;;;;;;5.30;3.80;;;;;;;17.15;37.11;101715.19;106721;1259;59820;-74
2022/05/01 08:33:55;;;;;;;6.80;4.20;;;;;;;17.29;37.20;101715.09;106728;1260;73416;-75
2022/05/01 08:36:24;;;;;;;6.80;4.50;;;;;;;17.42;35.80;101713.06;106680;1259;70239;-75
2022/05/01 08:38:52;;;;;;;6.70;3.70;;;;;;;17.59;35.99;101710.60;106584;1259;70291;-75
2022/05/01 08:41:22;;;;;;;8.60;3.70;;;;;;;17.59;36.89;101708.67;106509;1260;72409;-74
2022/05/01 08:43:53;;;;;;;5.50;3.00;;;;;;;17.64;38.14;101709.59;106449;1260;61652;-78
2022/05/01 08:46:28;;;;;;;4.70;3.90;;;;;;;17.65;37.38;101706.02;106534;1260;59726;-74
2022/05/01 08:49:04;;;;;;;7.80;4.30;;;;;;;17.72;37.75;101705.09;106673;1259;71754;-74
2022/05/01 08:51:44;;;;;;;6.90;4.50;;;;;;;17.82;35.83;101701.02;107950;1259;69402;-78
2022/05/01 08:54:16;;;;;;;5.40;4.00;;;;;;;17.59;34.80;101693.11;107006;1260;69166;-77
2022/05/01 08:56:45;;;;;;;5.00;4.10;;;;;;;17.42;34.77;101656.55;107053;1259;71650;-74
2022/05/01 08:59:18;;;;;;;8.40;4.00;;;;;;;17.84;35.04;101688.84;106837;1259;58938;-75
2022/05/01 09:01:47;;;;;;;5.30;3.20;;;;;;;17.94;35.10;101687.17;106633;1259;60520;-74
2022/05/01 09:04:16;;;;;;;5.00;4.00;;;;;;;18.10;34.12;101687.80;106604;1259;64468;-75
2022/05/01 09:06:46;;;;;;;8.00;4.30;;;;;;;18.01;35.01;101679.77;107057;1259;72972;-76
2022/05/01 09:09:21;;;;;;;3.90;3.10;;;;;;;18.05;33.90;101684.42;107002;1259;67960;-75
2022/05/01 09:14:42;;;;;;;6.40;3.20;;;;;;;18.40;33.68;101679.19;106462;1259;61452;-75
2022/05/01 09:17:24;;;;;;;4.90;3.00;;;;;;;18.46;31.52;101677.95;106708;1259;59708;-75
2022/05/01 09:20:05;;;;;;;4.50;2.90;;;;;;;18.53;31.48;101676.71;106505;1260;73495;-76
2022/05/01 09:22:55;;;;;;;5.30;2.70;;;;;;;18.56;30.68;101672.73;106656;1259;72128;-78
2022/05/01 09:25:27;;;;;;;6.30;3.50;;;;;;;18.54;30.43;101671.67;106589;1259;60510;-76
2022/05/01 09:27:59;;;;;;;4.00;2.60;;;;;;;18.82;30.95;101673.70;106504;1259;63355;-75
2022/05/01 09:30:38;;;;;;;4.80;2.90;;;;;;;19.03;29.72;101672.70;106310;1260;58094;-76
2022/05/01 09:33:20;;;;;;;3.70;2.50;;;;;;;19.09;29.97;101672.64;106556;1259;60447;-78
2022/05/01 09:35:52;;;;;;;5.40;2.60;;;;;;;19.13;30.44;101671.58;106359;1260;64418;-76
2022/05/01 09:38:24;;;;;;;4.40;2.50;;;;;;;19.27;30.24;101664.72;106434;1260;69924;-76
2022/05/01 09:40:57;;;;;;;4.90;2.50;;;;;;;19.30;29.65;101662.94;106450;1260;60781;-75
2022/05/01 09:43:46;;;;;;;4.20;2.20;;;;;;;19.50;29.61;101658.32;106444;1257;74948;-76
2022/05/01 09:46:23;;;;;;;4.80;2.90;;;;;;;19.60;28.42;101657.25;106369;1259;59636;-78
2022/05/01 09:49:25;;;;;;;5.20;2.20;;;;;;;19.81;28.65;101657.50;106380;1260;59738;-77
2022/05/01 09:51:56;;;;;;;3.40;2.40;;;;;;;20.11;26.58;101652.08;106246;1259;64586;-74
2022/05/01 09:54:27;;;;;;;6.50;4.10;;;;;;;20.24;23.92;101647.48;106491;1259;72706;-74
2022/05/01 09:56:59;;;;;;;5.50;3.20;;;;;;;20.33;23.76;101645.91;106490;1259;69152;-79
2022/05/01 09:59:29;;;;;;;3.50;2.30;;;;;;;20.35;24.68;101640.77;106444;1259;63311;-73
2022/05/01 10:02:04;;;;;;;8.70;7.50;;;;;;;20.66;24.21;101644.23;106293;1260;59170;-73
2022/05/01 10:04:36;;;;;;;16.50;14.70;;;;;;;20.78;23.91;101644.59;106665;1260;59579;-76
2022/05/01 10:07:07;;;;;;;34.50;27.30;;;;;;;20.74;24.18;101648.85;106494;1259;73797;-73
2022/05/01 10:09:36;;;;;;;3.50;2.40;;;;;;;20.53;22.62;101649.06;106426;1259;71990;-74
2022/05/01 10:12:08;;;;;;;5.70;2.40;;;;;;;20.18;22.41;101641.20;106610;1259;60634;-72
2022/05/01 10:14:37;;;;;;;5.80;2.90;;;;;;;20.37;23.87;101633.47;106543;1259;74345;-74
2022/05/01 10:17:07;;;;;;;10.30;6.40;;;;;;;20.49;23.47;101637.77;106538;1259;61724;-75
2022/05/01 10:19:39;;;;;;;12.70;5.50;;;;;;;20.61;26.20;101638.55;106624;1259;61445;-74
2022/05/01 10:22:08;;;;;;;5.00;2.30;;;;;;;20.71;26.44;101636.42;106348;1259;74509;-75
2022/05/01 10:24:37;;;;;;;4.30;2.40;;;;;;;20.93;26.22;101629.25;106632;1259;71773;-74
2022/05/01 10:27:21;;;;;;;5.10;2.80;;;;;;;20.94;26.31;101627.71;106723;1259;59748;-74
2022/05/01 10:33:27;;;;;;;3.40;2.10;;;;;;;22.08;24.11;101617.27;106557;1259;61596;-77
2022/05/01 10:36:15;;;;;;;3.80;2.40;;;;;;;21.92;23.01;101618.23;106795;1259;61001;-77
2022/05/01 10:38:44;;;;;;;6.60;4.20;;;;;;;20.79;22.26;101614.23;106892;1259;74118;-73
2022/05/01 10:41:17;;;;;;;4.80;2.50;;;;;;;20.40;23.22;101615.00;106860;1259;62586;-76
2022/05/01 10:44:00;;;;;;;4.30;2.40;;;;;;;20.25;23.00;101616.66;106588;1259;70702;-73
2022/05/01 10:46:38;;;;;;;4.70;2.20;;;;;;;20.96;22.64;101615.95;106915;1259;62922;-77
2022/05/01 10:49:37;;;;;;;9.40;6.00;;;;;;;21.63;22.43;101612.44;106641;1259;59556;-74
2022/05/01 10:52:21;;;;;;;3.80;2.80;;;;;;;22.20;21.76;101608.23;106738;1259;61343;-73
2022/05/01 10:54:59;;;;;;;3.80;2.30;;;;;;;21.89;22.21;101605.10;106548;1259;74376;-73
2022/05/01 10:57:28;;;;;;;6.40;4.10;;;;;;;22.24;21.65;101605.25;106511;1259;73378;-74
2022/05/01 11:00:11;;;;;;;5.00;2.60;;;;;;;22.40;20.82;101607.92;106570;1259;71098;-75
2022/05/01 11:02:49;;;;;;;7.30;3.70;;;;;;;22.35;21.64;101605.66;106654;1259;74588;-75
2022/05/01 11:05:44;;;;;;;6.00;3.00;;;;;;;22.56;21.68;101604.60;106947;1258;59689;-70
2022/05/01 11:08:20;;;;;;;9.30;2.90;;;;;;;22.37;21.49;101599.02;106798;1260;59715;-71
2022/05/01 11:10:54;;;;;;;5.40;2.40;;;;;;;22.88;20.74;101593.61;106867;1259;64319;-75
2022/05/01 11:13:37;;;;;;;7.80;5.90;;;;;;;23.30;21.13;101588.92;107071;1259;73312;-72
2022/05/01 11:16:10;;;;;;;3.50;2.20;;;;;;;23.12;21.10;101587.10;106708;1259;59672;-73
2022/05/01 11:18:42;;;;;;;4.70;2.40;;;;;;;22.30;21.24;101584.69;106628;1259;63795;-74
2022/05/01 11:21:23;;;;;;;3.50;2.40;;;;;;;22.76;21.36;101584.70;106626;1258;60681;-72
2022/05/01 11:24:03;;;;;;;4.80;2.80;;;;;;;21.76;21.87;101584.13;106488;1260;58461;-72
2022/05/01 11:26:34;;;;;;;8.70;2.50;;;;;;;21.35;22.26;101587.02;106449;1260;74314;-73
2022/05/01 11:29:14;;;;;;;5.10;2.40;;;;;;;21.35;22.38;101586.89;106679;1260;62572;-73
2022/05/01 11:31:45;;;;;;;4.80;2.60;;;;;;;21.95;22.73;101587.59;106408;1259;60435;-75
2022/05/01 11:34:17;;;;;;;4.20;2.40;;;;;;;21.99;22.84;101587.76;106566;1260;63335;-75
2022/05/01 11:37:08;;;;;;;7.70;2.50;;;;;;;21.92;22.76;101589.94;106433;1261;57978;-76
2022/05/01 11:39:46;;;;;;;4.30;2.30;;;;;;;21.58;23.06;101588.30;106659;1259;59635;-74
2022/05/01 11:42:23;;;;;;;4.50;2.20;;;;;;;21.65;23.33;101589.38;106605;1259;64812;-78
2022/05/01 11:44:57;;;;;;;4.00;2.20;;;;;;;21.32;22.70;101584.00;106496;1259;71376;-79
2022/05/01 11:47:30;;;;;;;5.00;2.30;;;;;;;21.21;22.71;101585.54;106658;1260;69204;-78
2022/05/01 11:49:59;;;;;;;3.70;2.30;;;;;;;20.79;23.41;101584.00;106580;1261;62969;-79
2022/05/01 11:52:28;;;;;;;3.50;2.20;;;;;;;21.05;23.49;101583.63;106543;1259;58261;-77
2022/05/01 11:55:06;;;;;;;8.90;6.10;;;;;;;21.35;23.06;101582.59;106627;1259;60480;-77
2022/05/01 12:03:13;;;;;;;4.40;2.70;;;;;;;22.81;23.18;101578.58;106699;1260;60446;-76
2022/05/01 12:05:49;;;;;;;4.60;2.30;;;;;;;22.36;22.97;101572.40;106474;1259;73948;-77
2022/05/01 12:08:22;;;;;;;5.30;2.20;;;;;;;22.43;22.23;101571.98;106774;1259;61093;-78
2022/05/01 12:10:51;;;;;;;4.20;2.30;;;;;;;22.13;22.71;101564.77;106724;1259;60859;-77
2022/05/01 12:13:22;;;;;;;5.70;2.90;;;;;;;22.87;22.56;101569.77;106494;1259;74944;-77
2022/05/01 12:15:52;;;;;;;3.80;2.60;;;;;;;22.74;23.36;101565.53;106637;1259;61611;-79